Seadream 1 — C6PW8 — position and weather

sailwx.info

Track history (hours):
 
Tides and Currents Weather Stations Pressure Air Temp Water Temp Dewpoint Dewpoint Depression Visibility Wind Speed Wind Dir Waves Ship Positions

Seadream 1

Last reported at 2016-Dec-03 13:33 UTC. Time now 2016-Dec-03 13:43 UTC.
Position N 18°05' W 063°05'.

Length 105 m; draft 4.3 m.

Type: Ship. MMSI: 308908000.

Date/timePositionNaut miles runAvg speedWind from/ knotsBaromVisibWave heightAir tempDewpointWater temp
2016-Dec-03 13:33N 18°05' W 063°05'0 0.0
2016-Dec-03 12:31N 18°05' W 063°05'0 0.0
2016-Dec-03 11:26N 18°05' W 063°05'0 0.0
2016-Dec-03 10:19N 18°05' W 063°05'4 5.0
2016-Dec-03 09:30N 18°06' W 063°09'9 8.9
2016-Dec-03 08:33N 18°07' W 063°18'6 5.6
2016-Dec-03 07:30N 18°03' W 063°23'7 6.9
2016-Dec-03 06:30N 17°56' W 063°20'7 6.6
2016-Dec-03 05:27N 17°52' W 063°15'6 7.2
2016-Dec-03 04:33N 17°53' W 063°08'76 1.7
2016-Dec-01 08:32N 16°46' W 062°31'9 9.2
2016-Dec-01 07:33N 16°38' W 062°27'9 8.8
2016-Dec-01 06:33N 16°31' W 062°21'9 9.3
2016-Dec-01 05:34N 16°27' W 062°12'9 8.8
2016-Dec-01 04:31N 16°23' W 062°04'9 9.3
2016-Dec-01 03:33N 16°19' W 061°55'9 9.0
2016-Dec-01 02:33N 16°12' W 061°50'10 9.7
2016-Dec-01 01:33N 16°02' W 061°48'  
Track history (hours):
 
Tides and Currents Weather Stations Pressure Air Temp Water Temp Dewpoint Dewpoint Depression Visibility Wind Speed Wind Dir Waves Ship Positions

Seadream 1

Last reported at 2016-Dec-03 13:33 UTC. Time now 2016-Dec-03 13:43 UTC.
Position N 18°05' W 063°05'.

Length 105 m; draft 4.3 m.

Type: Ship. MMSI: 308908000.

Date/timePositionNaut miles runAvg speedWind from/ knotsBaromVisibWave heightAir tempDewpointWater temp
2016-Dec-03 13:33N 18°05' W 063°05'0 0.0
2016-Dec-03 12:31N 18°05' W 063°05'0 0.0
2016-Dec-03 11:26N 18°05' W 063°05'0 0.0
2016-Dec-03 10:19N 18°05' W 063°05'4 5.0
2016-Dec-03 09:30N 18°06' W 063°09'9 8.9
2016-Dec-03 08:33N 18°07' W 063°18'6 5.6
2016-Dec-03 07:30N 18°03' W 063°23'7 6.9
2016-Dec-03 06:30N 17°56' W 063°20'7 6.6
2016-Dec-03 05:27N 17°52' W 063°15'6 7.2
2016-Dec-03 04:33N 17°53' W 063°08'76 1.7
2016-Dec-01 08:32N 16°46' W 062°31'9 9.2
2016-Dec-01 07:33N 16°38' W 062°27'9 8.8
2016-Dec-01 06:33N 16°31' W 062°21'9 9.3
2016-Dec-01 05:34N 16°27' W 062°12'9 8.8
2016-Dec-01 04:31N 16°23' W 062°04'9 9.3
2016-Dec-01 03:33N 16°19' W 061°55'9 9.0
2016-Dec-01 02:33N 16°12' W 061°50'10 9.7
2016-Dec-01 01:33N 16°02' W 061°48'  

Dump ship's entire track history